Pagrindinis puslapis
METAR-TAF:

METAR-TAF

Oro uostai :

Waddington, Anglija

platuma: 53-10N, ilguma: 000-31W, Aukštis: 68 m

Dabartinis oras

Ataskaita buvo paskelbta 24 minutes, ne 10:22 UTC
Vėjas 9 kt iš Šiaurės/Šiaurės Rytų
Temperatūra 7°C
Drėgmė 61%
Slėgis 1034 hPa
Matomumas 10 km arba daugiau
Su prošvaistėmis ne aukštis 3100 ft

METAR: EGXW 311022Z 03009KT 9999 BKN031 07/M00 Q1034 NOSIG RMK BLU BLU

Laikas: 11:46 (10:46 UTC)

Prognozė

Ataskaita buvo paskelbta 3 valandos ir 35 minutes, ne 07:11 UTC
Prognozė galioja nuo 31 metu 09 UTC su 01 metu 03 UTC
Vėjas 10 kt iš Šiaurės/Šiaurės Rytų
Matomumas 10 km arba daugiau
Išsisklaidę debesys ne aukštis 3500 ft
Tikimybė 30% :
Laikinai
nuo 31 metu 09 UTC su 31 metu 11 UTC
Išsisklaidę debesys ne aukštis 2200 ft

TAF: EGXW 310711Z 3109/0103 03010KT 9999 SCT035 PROB30 TEMPO 3109/3111 SCT022

Orai ataskaitas ir orų prognozės (METAR, TAF).

turimą stotys yra geltonos ir raudonos taškus žemėlapyje.

Perkelti pele per norėdami pamatyti stoties vardą.

Tada spustelėkite, norėdami matyti oro stebėjimo ir prognozės.

Norėdami pakeisti žemėlapį: spustelėkite ant žalios mygtukų su juodo kryžiaus žemyn,; žalią mygtuką su brūkšneliu, jei norite nutolinti; arba žalių rodyklių gretimoms žemėlapius.


METAR-TAF: